• Join FlightAware (Why Join?)
  • Login
  • US Flag 
12:13AM EST


 

Airport Tracker/Info


-or-


 

Live Flight TrackerFlight Track Log ✈ SWA830 ✈ 17-Aug-2013 ✈ KDAL - KLBB

Flight Track Log - Related Links

Times and Time Zones

All times are in EDT time to prevent confusion due to time zone crossing. See the SWA830 flight status page for this flight to view local times or setup timezone preferences in your user account.

Time Position Orientation Groundspeed Altitude Reporting Facility
EDT Latitude Longitude Course Direction KTS MPH feet Rate Location/Type
08:19PM 33.0103 -97.0542 313° West 295 339 11,100  Level Fort Worth Center
08:20PM 33.0503 -97.1556 295° West 301 346 14,700 3,180 Climbing Fort Worth Center
08:21PM 33.0336 -97.2722 260° West 327 376 17,500 2,640 Climbing Fort Worth Center
08:22PM 32.9314 -97.5053 281° West  Level FlightAware Approximate
08:22PM 33.0211 -97.3911 263° West 356 410 20,000  Level Fort Worth Center
08:23PM 32.9555 -97.6105 276° West  Level FlightAware Approximate
08:23PM 33.0067 -97.5125 262° West 373 429 22,500  Level Fort Worth Center
08:24PM 32.9917 -97.6414 262° West 380 437 24,300 1,860 Climbing Fort Worth Center
08:25PM 32.9894 -97.7750 269° West 392 451 26,300 1,680 Climbing Fort Worth Center
08:26PM 33.0097 -97.9039 281° West 392 451 27,700 1,380 Climbing Fort Worth Center
08:27PM 33.0383 -98.0403 284° West 412 474 29,100 1,620 Climbing Fort Worth Center
08:28PM 33.0647 -98.1794 283° West 425 489 31,000 1,920 Climbing Fort Worth Center
08:29PM 33.0889 -98.3161 282° West 430 495 33,000 1,680 Climbing Fort Worth Center
08:30PM 33.1150 -98.4528 283° West 430 495 34,400 1,200 Climbing Fort Worth Center
08:31PM 33.1328 -98.5644 281° West 416 479 35,500 780 Climbing Fort Worth Center
08:32PM 33.1608 -98.6989 284° West 411 473 36,000 240 Climbing Fort Worth Center
08:33PM 33.1842 -98.8358 282° West 411 473 36,000  Level Fort Worth Center
08:34PM 33.2097 -98.9703 283° West 411 473 36,000  Level Fort Worth Center
08:35PM 33.2331 -99.1022 282° West 411 473 36,000  Level Fort Worth Center
08:36PM 33.2583 -99.2369 283° West 416 479 36,000  Level Fort Worth Center
08:37PM 33.2814 -99.3714 282° West 416 479 36,000  Level Fort Worth Center
08:38PM 33.3064 -99.5039 283° West 410 472 36,000  Level Fort Worth Center
08:39PM 33.3292 -99.6386 281° West 410 472 36,000  Level Fort Worth Center
08:40PM 33.3517 -99.7758 281° West 410 472 36,000  Level Fort Worth Center
08:41PM 33.3800 -99.9233 283° West 410 472 36,000  Level Fort Worth Center
08:42PM 33.4025 -100.0558 282° West 410 472 36,000 -900 Level Fort Worth Center
08:43PM 33.4247 -100.1886 281° West 410 472 34,200 -2,640 Descending Fort Worth Center
08:44PM 33.4486 -100.3261 282° West 410 472 30,800 -3,180 Descending Fort Worth Center
08:45PM 33.4706 -100.4614 281° West 416 479 27,900 -2,700 Descending Fort Worth Center
08:46PM 33.4922 -100.5942 281° West 411 473 25,400 -2,700 Descending Fort Worth Center
08:47PM 33.5139 -100.7194 282° West 405 466 22,500 -2,880 Descending Fort Worth Center
08:48PM 33.5264 -100.8022 280° West 390 449 20,700 -2,460 Descending Fort Worth Center
08:48PM 33.5422 -100.9075 280° West 402 463 19,000 -2,220 Descending Fort Worth Center
08:49PM 33.5569 -100.9753 285° West 389 448 17,700 -2,460 Descending Fort Worth Center
08:50PM 33.5831 -101.0911 285° West 366 421 15,200 -2,340 Descending Fort Worth Center
08:51PM 33.6047 -101.2042 283° West 355 409 13,100 -2,160 Descending Fort Worth Center
08:52PM 33.6283 -101.3125 285° West 345 397 10,900 -1,560 Descending Fort Worth Center
08:53PM 33.6503 -101.4108 285° West 331 381 10,000 -960 Descending Fort Worth Center
08:54PM 33.6572 -101.4561 280° West 268 308 9,500 -1,320 Descending Fort Worth Center
08:54PM 33.6683 -101.4989 287° West 284 327 8,700 -1,320 Descending Fort Worth Center
08:55PM 33.6753 -101.5442 280° West 263 303 8,200 -1,140 Descending Fort Worth Center
08:55PM 33.6864 -101.5847 288° West 277 319 7,600 -1,500 Descending Fort Worth Center
08:56PM 33.6933 -101.6300 280° West 270 311 6,700 -1,500 Descending Fort Worth Center
08:57PM 33.7111 -101.7181 284° West 267 307 5,300 -1,020 Descending Fort Worth Center
08:58PM 33.7253 -101.7939 283° West 207 238 4,700 -720 Descending Fort Worth Center
08:59PM 33.7133 -101.8331 250° West 121 139 3,900 -600 Descending Fort Worth Center
09:00PM 33.6794 -101.8489 201° Southwest 105 121 3,300 4,080 Descending Fort Worth Center
09:01PM 33.6578 -101.8728 223° Southwest 105 121 14,000 5,340 Climbing Fort Worth Center
09:02PM 33.6358 -101.8967 222° Southwest 105 121 14,000  Level Fort Worth Center
09:04PM 33.6500 -101.8167 90° East  Level FlightAware Approximate
09:11PM 33.6637 -101.8206 90° East  Level Estimated
09:12PM 33.6637 -101.8206 90° East  Level Estimated
09:13PM 33.6637 -101.8206 90° East  Level Estimated
09:14PM 33.6637 -101.8206 90° East  Level Estimated
09:15PM 33.6637 -101.8206 90° East  Level Estimated
09:16PM 33.6637 -101.8206 90° East  Level Estimated
09:17PM 33.6637 -101.8206 90° East  Level Estimated
09:18PM 33.6637 -101.8206 90° East  Level Estimated